sensor_id;sensor_type;location;lat;lon;timestamp;temperature;humidity
8459;DHT22;4266;48.816;9.154;2022-10-28T00:01:21;14.60;99.90
8459;DHT22;4266;48.816;9.154;2022-10-28T00:03:47;14.70;99.90
8459;DHT22;4266;48.816;9.154;2022-10-28T00:06:15;14.60;99.90
8459;DHT22;4266;48.816;9.154;2022-10-28T00:08:40;14.60;99.90
8459;DHT22;4266;48.816;9.154;2022-10-28T00:11:07;14.50;99.90
8459;DHT22;4266;48.816;9.154;2022-10-28T00:13:31;14.40;99.90
8459;DHT22;4266;48.816;9.154;2022-10-28T00:16:06;14.50;99.90
8459;DHT22;4266;48.816;9.154;2022-10-28T00:18:32;14.50;99.90
8459;DHT22;4266;48.816;9.154;2022-10-28T00:20:59;14.40;99.90
8459;DHT22;4266;48.816;9.154;2022-10-28T00:23:24;14.40;99.90
8459;DHT22;4266;48.816;9.154;2022-10-28T00:25:50;14.40;99.90
8459;DHT22;4266;48.816;9.154;2022-10-28T00:28:16;14.30;99.90
8459;DHT22;4266;48.816;9.154;2022-10-28T00:30:41;14.30;99.90
8459;DHT22;4266;48.816;9.154;2022-10-28T00:33:07;14.30;99.90
8459;DHT22;4266;48.816;9.154;2022-10-28T00:35:33;14.30;99.90
8459;DHT22;4266;48.816;9.154;2022-10-28T00:37:58;14.30;99.90
8459;DHT22;4266;48.816;9.154;2022-10-28T00:40:24;14.30;99.90
8459;DHT22;4266;48.816;9.154;2022-10-28T00:42:50;14.30;99.90
8459;DHT22;4266;48.816;9.154;2022-10-28T00:45:15;14.30;99.90
8459;DHT22;4266;48.816;9.154;2022-10-28T00:47:47;14.30;99.90
8459;DHT22;4266;48.816;9.154;2022-10-28T00:50:16;14.30;99.90
8459;DHT22;4266;48.816;9.154;2022-10-28T00:52:39;14.40;99.90
8459;DHT22;4266;48.816;9.154;2022-10-28T00:55:05;14.40;99.90
8459;DHT22;4266;48.816;9.154;2022-10-28T00:57:33;14.50;99.90
8459;DHT22;4266;48.816;9.154;2022-10-28T00:59:58;14.50;99.90
8459;DHT22;4266;48.816;9.154;2022-10-28T01:02:24;14.40;99.90
8459;DHT22;4266;48.816;9.154;2022-10-28T01:04:50;14.50;99.90
8459;DHT22;4266;48.816;9.154;2022-10-28T01:07:15;14.50;99.90
8459;DHT22;4266;48.816;9.154;2022-10-28T01:09:41;14.50;99.90
8459;DHT22;4266;48.816;9.154;2022-10-28T01:15:09;14.40;99.90
8459;DHT22;4266;48.816;9.154;2022-10-28T01:20:27;14.30;99.90
8459;DHT22;4266;48.816;9.154;2022-10-28T01:25:56;14.20;99.90
8459;DHT22;4266;48.816;9.154;2022-10-28T01:31:14;14.10;99.90
8459;DHT22;4266;48.816;9.154;2022-10-28T01:33:53;14.10;99.90
8459;DHT22;4266;48.816;9.154;2022-10-28T01:36:34;14.10;99.90
8459;DHT22;4266;48.816;9.154;2022-10-28T01:39:03;13.90;99.90
8459;DHT22;4266;48.816;9.154;2022-10-28T01:41:33;13.90;99.90
8459;DHT22;4266;48.816;9.154;2022-10-28T01:44:08;13.80;99.90
8459;DHT22;4266;48.816;9.154;2022-10-28T01:46:37;13.80;99.90
8459;DHT22;4266;48.816;9.154;2022-10-28T01:49:08;13.80;99.90
8459;DHT22;4266;48.816;9.154;2022-10-28T01:51:32;13.70;99.90
8459;DHT22;4266;48.816;9.154;2022-10-28T01:53:57;13.70;99.90
8459;DHT22;4266;48.816;9.154;2022-10-28T01:56:25;13.60;99.90
8459;DHT22;4266;48.816;9.154;2022-10-28T01:58:48;13.60;99.90
8459;DHT22;4266;48.816;9.154;2022-10-28T02:01:14;13.50;99.90
8459;DHT22;4266;48.816;9.154;2022-10-28T02:03:39;13.50;99.90
8459;DHT22;4266;48.816;9.154;2022-10-28T02:06:06;13.50;99.90
8459;DHT22;4266;48.816;9.154;2022-10-28T02:08:41;13.50;99.90
8459;DHT22;4266;48.816;9.154;2022-10-28T02:11:17;13.40;99.90
8459;DHT22;4266;48.816;9.154;2022-10-28T02:14:29;13.50;99.90
8459;DHT22;4266;48.816;9.154;2022-10-28T02:16:53;13.40;99.90
8459;DHT22;4266;48.816;9.154;2022-10-28T02:19:31;13.40;99.90
8459;DHT22;4266;48.816;9.154;2022-10-28T02:22:31;13.40;99.90
8459;DHT22;4266;48.816;9.154;2022-10-28T02:25:21;13.40;99.90
8459;DHT22;4266;48.816;9.154;2022-10-28T02:27:56;13.40;99.90
8459;DHT22;4266;48.816;9.154;2022-10-28T02:30:23;13.30;99.90
8459;DHT22;4266;48.816;9.154;2022-10-28T02:32:49;13.30;99.90
8459;DHT22;4266;48.816;9.154;2022-10-28T02:35:17;13.30;99.90
8459;DHT22;4266;48.816;9.154;2022-10-28T02:37:41;13.30;99.90
8459;DHT22;4266;48.816;9.154;2022-10-28T02:40:10;13.40;99.90
8459;DHT22;4266;48.816;9.154;2022-10-28T02:42:35;13.30;99.90
8459;DHT22;4266;48.816;9.154;2022-10-28T02:45:05;13.30;99.90
8459;DHT22;4266;48.816;9.154;2022-10-28T02:47:30;13.30;99.90
8459;DHT22;4266;48.816;9.154;2022-10-28T02:49:55;13.30;99.90
8459;DHT22;4266;48.816;9.154;2022-10-28T02:52:19;13.30;99.90
8459;DHT22;4266;48.816;9.154;2022-10-28T02:54:52;13.30;99.90
8459;DHT22;4266;48.816;9.154;2022-10-28T02:57:16;13.40;99.90
8459;DHT22;4266;48.816;9.154;2022-10-28T02:59:41;13.40;99.90
8459;DHT22;4266;48.816;9.154;2022-10-28T03:02:07;13.50;99.90
8459;DHT22;4266;48.816;9.154;2022-10-28T03:04:32;13.40;99.90
8459;DHT22;4266;48.816;9.154;2022-10-28T03:06:58;13.40;99.90
8459;DHT22;4266;48.816;9.154;2022-10-28T03:09:24;13.30;99.90
8459;DHT22;4266;48.816;9.154;2022-10-28T03:11:49;13.30;99.90
8459;DHT22;4266;48.816;9.154;2022-10-28T03:14:15;13.40;99.90
8459;DHT22;4266;48.816;9.154;2022-10-28T03:16:41;13.40;99.90
8459;DHT22;4266;48.816;9.154;2022-10-28T03:19:06;13.40;99.90
8459;DHT22;4266;48.816;9.154;2022-10-28T03:21:32;13.40;99.90
8459;DHT22;4266;48.816;9.154;2022-10-28T03:23:58;13.50;99.90
8459;DHT22;4266;48.816;9.154;2022-10-28T03:26:24;13.60;99.90
8459;DHT22;4266;48.816;9.154;2022-10-28T03:28:50;13.50;99.90
8459;DHT22;4266;48.816;9.154;2022-10-28T03:31:15;13.60;99.90
8459;DHT22;4266;48.816;9.154;2022-10-28T03:33:41;13.60;99.90
8459;DHT22;4266;48.816;9.154;2022-10-28T03:36:07;13.70;99.90
8459;DHT22;4266;48.816;9.154;2022-10-28T03:38:33;13.60;99.90
8459;DHT22;4266;48.816;9.154;2022-10-28T03:40:59;13.60;99.90
8459;DHT22;4266;48.816;9.154;2022-10-28T03:43:25;13.60;99.90
8459;DHT22;4266;48.816;9.154;2022-10-28T03:45:51;13.60;99.90
8459;DHT22;4266;48.816;9.154;2022-10-28T03:48:16;13.60;99.90
8459;DHT22;4266;48.816;9.154;2022-10-28T03:50:42;13.60;99.90
8459;DHT22;4266;48.816;9.154;2022-10-28T03:53:09;13.60;99.90
8459;DHT22;4266;48.816;9.154;2022-10-28T03:55:34;13.60;99.90
8459;DHT22;4266;48.816;9.154;2022-10-28T03:58:01;13.50;99.90
8459;DHT22;4266;48.816;9.154;2022-10-28T04:00:27;13.50;99.90
8459;DHT22;4266;48.816;9.154;2022-10-28T04:02:53;13.50;99.90
8459;DHT22;4266;48.816;9.154;2022-10-28T04:05:19;13.50;99.90
8459;DHT22;4266;48.816;9.154;2022-10-28T04:07:45;13.50;99.90
8459;DHT22;4266;48.816;9.154;2022-10-28T04:10:11;13.50;99.90
8459;DHT22;4266;48.816;9.154;2022-10-28T04:12:36;13.60;99.90
8459;DHT22;4266;48.816;9.154;2022-10-28T04:15:02;13.60;99.90
8459;DHT22;4266;48.816;9.154;2022-10-28T04:17:28;13.70;99.90
8459;DHT22;4266;48.816;9.154;2022-10-28T04:19:53;13.70;99.90
8459;DHT22;4266;48.816;9.154;2022-10-28T04:22:19;13.70;99.90
8459;DHT22;4266;48.816;9.154;2022-10-28T04:24:45;13.60;99.90
8459;DHT22;4266;48.816;9.154;2022-10-28T04:27:11;13.60;99.90
8459;DHT22;4266;48.816;9.154;2022-10-28T04:29:37;13.60;99.90
8459;DHT22;4266;48.816;9.154;2022-10-28T04:32:02;13.60;99.90
8459;DHT22;4266;48.816;9.154;2022-10-28T04:34:28;13.50;99.90
8459;DHT22;4266;48.816;9.154;2022-10-28T04:36:53;13.40;99.90
8459;DHT22;4266;48.816;9.154;2022-10-28T04:39:19;13.50;99.90
8459;DHT22;4266;48.816;9.154;2022-10-28T04:41:45;13.50;99.90
8459;DHT22;4266;48.816;9.154;2022-10-28T04:44:12;13.50;99.90
8459;DHT22;4266;48.816;9.154;2022-10-28T04:46:38;13.50;99.90
8459;DHT22;4266;48.816;9.154;2022-10-28T04:49:03;13.50;99.90
8459;DHT22;4266;48.816;9.154;2022-10-28T04:51:29;13.50;99.90
8459;DHT22;4266;48.816;9.154;2022-10-28T04:53:56;13.60;99.90
8459;DHT22;4266;48.816;9.154;2022-10-28T04:56:21;13.60;99.90
8459;DHT22;4266;48.816;9.154;2022-10-28T04:58:47;13.60;99.90
8459;DHT22;4266;48.816;9.154;2022-10-28T05:01:13;13.60;99.90
8459;DHT22;4266;48.816;9.154;2022-10-28T05:03:39;13.70;99.90
8459;DHT22;4266;48.816;9.154;2022-10-28T05:06:05;13.60;99.90
8459;DHT22;4266;48.816;9.154;2022-10-28T05:08:30;13.70;99.90
8459;DHT22;4266;48.816;9.154;2022-10-28T05:10:56;13.70;99.90
8459;DHT22;4266;48.816;9.154;2022-10-28T05:13:22;13.80;99.90
8459;DHT22;4266;48.816;9.154;2022-10-28T05:15:48;13.80;99.90
8459;DHT22;4266;48.816;9.154;2022-10-28T05:18:14;13.80;99.90
8459;DHT22;4266;48.816;9.154;2022-10-28T05:20:39;13.80;99.90
8459;DHT22;4266;48.816;9.154;2022-10-28T05:23:05;13.80;99.90
8459;DHT22;4266;48.816;9.154;2022-10-28T05:25:31;13.70;99.90
8459;DHT22;4266;48.816;9.154;2022-10-28T05:27:58;13.70;99.90
8459;DHT22;4266;48.816;9.154;2022-10-28T05:30:23;13.60;99.90
8459;DHT22;4266;48.816;9.154;2022-10-28T05:32:48;13.60;99.90
8459;DHT22;4266;48.816;9.154;2022-10-28T05:35:15;13.60;99.90
8459;DHT22;4266;48.816;9.154;2022-10-28T05:37:41;13.60;99.90
8459;DHT22;4266;48.816;9.154;2022-10-28T05:40:07;13.60;99.90
8459;DHT22;4266;48.816;9.154;2022-10-28T05:42:38;13.60;99.90
8459;DHT22;4266;48.816;9.154;2022-10-28T05:44:59;13.50;99.90
8459;DHT22;4266;48.816;9.154;2022-10-28T05:47:24;13.40;99.90
8459;DHT22;4266;48.816;9.154;2022-10-28T05:49:51;13.40;99.90
8459;DHT22;4266;48.816;9.154;2022-10-28T05:52:16;13.40;99.90
8459;DHT22;4266;48.816;9.154;2022-10-28T05:54:42;13.50;99.90
8459;DHT22;4266;48.816;9.154;2022-10-28T05:57:08;13.60;99.90
8459;DHT22;4266;48.816;9.154;2022-10-28T05:59:34;13.60;99.90
8459;DHT22;4266;48.816;9.154;2022-10-28T06:02:00;13.60;99.90
8459;DHT22;4266;48.816;9.154;2022-10-28T06:04:26;13.60;99.90
8459;DHT22;4266;48.816;9.154;2022-10-28T06:06:53;13.60;99.90
8459;DHT22;4266;48.816;9.154;2022-10-28T06:09:18;13.60;99.90
8459;DHT22;4266;48.816;9.154;2022-10-28T06:11:44;13.70;99.90
8459;DHT22;4266;48.816;9.154;2022-10-28T06:14:09;13.70;99.90
8459;DHT22;4266;48.816;9.154;2022-10-28T06:16:35;13.80;99.90
8459;DHT22;4266;48.816;9.154;2022-10-28T06:19:01;13.60;99.90
8459;DHT22;4266;48.816;9.154;2022-10-28T06:21:27;13.60;99.90
8459;DHT22;4266;48.816;9.154;2022-10-28T06:23:53;13.60;99.90
8459;DHT22;4266;48.816;9.154;2022-10-28T06:26:18;13.60;99.90
8459;DHT22;4266;48.816;9.154;2022-10-28T06:28:46;13.60;99.90
8459;DHT22;4266;48.816;9.154;2022-10-28T06:31:11;13.60;99.90
8459;DHT22;4266;48.816;9.154;2022-10-28T06:33:37;13.80;99.90
8459;DHT22;4266;48.816;9.154;2022-10-28T06:36:03;13.70;99.90
8459;DHT22;4266;48.816;9.154;2022-10-28T06:38:29;13.80;99.90
8459;DHT22;4266;48.816;9.154;2022-10-28T06:40:56;13.80;99.90
8459;DHT22;4266;48.816;9.154;2022-10-28T06:43:21;13.80;99.90
8459;DHT22;4266;48.816;9.154;2022-10-28T06:45:47;13.80;99.90
8459;DHT22;4266;48.816;9.154;2022-10-28T06:48:13;13.90;99.90
8459;DHT22;4266;48.816;9.154;2022-10-28T06:50:39;13.90;99.90
8459;DHT22;4266;48.816;9.154;2022-10-28T06:53:04;14.00;99.90
8459;DHT22;4266;48.816;9.154;2022-10-28T06:55:30;14.00;99.90
8459;DHT22;4266;48.816;9.154;2022-10-28T06:57:58;14.10;99.90
8459;DHT22;4266;48.816;9.154;2022-10-28T07:00:23;14.10;99.90
8459;DHT22;4266;48.816;9.154;2022-10-28T07:02:51;14.20;99.90
8459;DHT22;4266;48.816;9.154;2022-10-28T07:05:16;14.20;99.90
8459;DHT22;4266;48.816;9.154;2022-10-28T07:07:42;14.30;99.90
8459;DHT22;4266;48.816;9.154;2022-10-28T07:10:07;14.40;99.90
8459;DHT22;4266;48.816;9.154;2022-10-28T07:12:33;14.60;99.90
8459;DHT22;4266;48.816;9.154;2022-10-28T07:15:00;14.80;99.90
8459;DHT22;4266;48.816;9.154;2022-10-28T07:17:25;14.80;99.90
8459;DHT22;4266;48.816;9.154;2022-10-28T07:19:51;15.00;99.90
8459;DHT22;4266;48.816;9.154;2022-10-28T07:22:17;15.10;99.90
8459;DHT22;4266;48.816;9.154;2022-10-28T07:24:43;15.40;99.90
8459;DHT22;4266;48.816;9.154;2022-10-28T07:27:09;15.40;99.90
8459;DHT22;4266;48.816;9.154;2022-10-28T07:29:34;15.70;99.90
8459;DHT22;4266;48.816;9.154;2022-10-28T07:32:01;16.30;98.50
8459;DHT22;4266;48.816;9.154;2022-10-28T07:34:27;16.30;98.50
8459;DHT22;4266;48.816;9.154;2022-10-28T07:36:53;17.50;97.30
8459;DHT22;4266;48.816;9.154;2022-10-28T07:39:18;17.40;96.40
8459;DHT22;4266;48.816;9.154;2022-10-28T07:41:44;17.20;96.70
8459;DHT22;4266;48.816;9.154;2022-10-28T07:44:09;16.70;97.00
8459;DHT22;4266;48.816;9.154;2022-10-28T07:46:35;16.60;97.50
8459;DHT22;4266;48.816;9.154;2022-10-28T07:49:01;16.20;97.70
8459;DHT22;4266;48.816;9.154;2022-10-28T07:51:26;16.30;97.70
8459;DHT22;4266;48.816;9.154;2022-10-28T07:53:53;16.10;97.70
8459;DHT22;4266;48.816;9.154;2022-10-28T07:56:18;16.20;97.90
8459;DHT22;4266;48.816;9.154;2022-10-28T07:58:43;16.10;97.90
8459;DHT22;4266;48.816;9.154;2022-10-28T08:01:10;16.30;97.80
8459;DHT22;4266;48.816;9.154;2022-10-28T08:03:35;16.40;97.90
8459;DHT22;4266;48.816;9.154;2022-10-28T08:06:02;16.60;97.40
8459;DHT22;4266;48.816;9.154;2022-10-28T08:08:27;16.80;97.30
8459;DHT22;4266;48.816;9.154;2022-10-28T08:10:53;16.80;97.20
8459;DHT22;4266;48.816;9.154;2022-10-28T08:13:20;16.90;97.10
8459;DHT22;4266;48.816;9.154;2022-10-28T08:15:53;16.90;97.20
8459;DHT22;4266;48.816;9.154;2022-10-28T08:18:18;16.90;97.10
8459;DHT22;4266;48.816;9.154;2022-10-28T08:20:43;17.00;97.10
8459;DHT22;4266;48.816;9.154;2022-10-28T08:23:09;16.90;97.60
8459;DHT22;4266;48.816;9.154;2022-10-28T08:25:35;16.90;97.80
8459;DHT22;4266;48.816;9.154;2022-10-28T08:28:00;17.00;97.30
8459;DHT22;4266;48.816;9.154;2022-10-28T08:30:26;16.90;97.80
8459;DHT22;4266;48.816;9.154;2022-10-28T08:32:54;16.90;97.30
8459;DHT22;4266;48.816;9.154;2022-10-28T08:35:19;16.90;97.30
8459;DHT22;4266;48.816;9.154;2022-10-28T08:37:49;16.90;97.50
8459;DHT22;4266;48.816;9.154;2022-10-28T08:40:14;16.80;97.60
8459;DHT22;4266;48.816;9.154;2022-10-28T08:42:45;16.70;97.60
8459;DHT22;4266;48.816;9.154;2022-10-28T08:45:27;16.70;97.90
8459;DHT22;4266;48.816;9.154;2022-10-28T08:48:12;17.00;97.60
8459;DHT22;4266;48.816;9.154;2022-10-28T08:50:53;17.10;97.80
8459;DHT22;4266;48.816;9.154;2022-10-28T08:53:19;17.30;98.00
8459;DHT22;4266;48.816;9.154;2022-10-28T08:55:45;17.60;97.70
8459;DHT22;4266;48.816;9.154;2022-10-28T08:58:29;17.70;97.80
8459;DHT22;4266;48.816;9.154;2022-10-28T09:00:55;17.90;97.60
8459;DHT22;4266;48.816;9.154;2022-10-28T09:03:24;18.40;97.20
8459;DHT22;4266;48.816;9.154;2022-10-28T09:05:52;18.30;97.10
8459;DHT22;4266;48.816;9.154;2022-10-28T09:08:18;18.60;96.70
8459;DHT22;4266;48.816;9.154;2022-10-28T09:10:52;18.60;96.60
8459;DHT22;4266;48.816;9.154;2022-10-28T09:14:10;18.80;96.00
8459;DHT22;4266;48.816;9.154;2022-10-28T09:16:22;18.80;95.90
8459;DHT22;4266;48.816;9.154;2022-10-28T09:18:50;18.90;96.20
8459;DHT22;4266;48.816;9.154;2022-10-28T09:21:17;18.90;96.60
8459;DHT22;4266;48.816;9.154;2022-10-28T09:23:46;18.90;96.50
8459;DHT22;4266;48.816;9.154;2022-10-28T09:26:17;18.80;96.40
8459;DHT22;4266;48.816;9.154;2022-10-28T09:28:48;18.80;96.40
8459;DHT22;4266;48.816;9.154;2022-10-28T09:31:13;18.70;96.20
8459;DHT22;4266;48.816;9.154;2022-10-28T09:33:39;18.40;95.90
8459;DHT22;4266;48.816;9.154;2022-10-28T09:36:02;18.20;96.00
8459;DHT22;4266;48.816;9.154;2022-10-28T09:38:31;18.10;96.10
8459;DHT22;4266;48.816;9.154;2022-10-28T09:41:16;18.10;95.60
8459;DHT22;4266;48.816;9.154;2022-10-28T09:43:43;18.30;95.70
8459;DHT22;4266;48.816;9.154;2022-10-28T09:46:11;18.20;95.60
8459;DHT22;4266;48.816;9.154;2022-10-28T09:48:36;18.60;95.50
8459;DHT22;4266;48.816;9.154;2022-10-28T09:51:02;20.20;95.30
8459;DHT22;4266;48.816;9.154;2022-10-28T09:53:38;20.10;95.30
8459;DHT22;4266;48.816;9.154;2022-10-28T09:56:00;22.40;94.30
8459;DHT22;4266;48.816;9.154;2022-10-28T09:58:25;22.30;93.90
8459;DHT22;4266;48.816;9.154;2022-10-28T10:00:51;22.30;94.00
8459;DHT22;4266;48.816;9.154;2022-10-28T10:03:18;23.20;93.40
8459;DHT22;4266;48.816;9.154;2022-10-28T10:05:45;23.10;93.40
8459;DHT22;4266;48.816;9.154;2022-10-28T10:08:11;24.20;92.30
8459;DHT22;4266;48.816;9.154;2022-10-28T10:10:45;24.00;92.20
8459;DHT22;4266;48.816;9.154;2022-10-28T10:13:07;25.60;91.30
8459;DHT22;4266;48.816;9.154;2022-10-28T10:15:36;24.80;91.30
8459;DHT22;4266;48.816;9.154;2022-10-28T10:18:03;24.80;91.20
8459;DHT22;4266;48.816;9.154;2022-10-28T10:20:27;24.30;91.00
8459;DHT22;4266;48.816;9.154;2022-10-28T10:22:53;25.40;90.50
8459;DHT22;4266;48.816;9.154;2022-10-28T10:25:22;23.90;90.30
8459;DHT22;4266;48.816;9.154;2022-10-28T10:27:49;23.40;90.90
8459;DHT22;4266;48.816;9.154;2022-10-28T10:30:17;23.40;90.70
8459;DHT22;4266;48.816;9.154;2022-10-28T10:32:40;23.10;91.20
8459;DHT22;4266;48.816;9.154;2022-10-28T10:35:24;22.30;91.50
8459;DHT22;4266;48.816;9.154;2022-10-28T10:37:49;22.20;91.20
8459;DHT22;4266;48.816;9.154;2022-10-28T10:40:22;22.50;90.90
8459;DHT22;4266;48.816;9.154;2022-10-28T10:42:47;22.40;90.90
8459;DHT22;4266;48.816;9.154;2022-10-28T10:45:22;22.40;91.00
8459;DHT22;4266;48.816;9.154;2022-10-28T10:48:00;22.00;91.90
8459;DHT22;4266;48.816;9.154;2022-10-28T10:50:21;21.90;91.90
8459;DHT22;4266;48.816;9.154;2022-10-28T10:52:49;21.60;91.50
8459;DHT22;4266;48.816;9.154;2022-10-28T10:55:18;21.70;91.70
8459;DHT22;4266;48.816;9.154;2022-10-28T10:57:39;21.60;92.30
8459;DHT22;4266;48.816;9.154;2022-10-28T11:00:06;21.60;92.00
8459;DHT22;4266;48.816;9.154;2022-10-28T11:02:34;21.50;92.10
8459;DHT22;4266;48.816;9.154;2022-10-28T11:05:02;21.80;92.20
8459;DHT22;4266;48.816;9.154;2022-10-28T11:07:27;21.70;92.20
8459;DHT22;4266;48.816;9.154;2022-10-28T11:09:52;22.00;92.30
8459;DHT22;4266;48.816;9.154;2022-10-28T11:12:27;22.40;92.30
8459;DHT22;4266;48.816;9.154;2022-10-28T11:14:56;22.40;92.70
8459;DHT22;4266;48.816;9.154;2022-10-28T11:17:22;22.40;92.60
8459;DHT22;4266;48.816;9.154;2022-10-28T11:19:47;22.50;93.00
8459;DHT22;4266;48.816;9.154;2022-10-28T11:22:21;22.40;92.90
8459;DHT22;4266;48.816;9.154;2022-10-28T11:30:53;22.10;93.10
8459;DHT22;4266;48.816;9.154;2022-10-28T11:33:16;21.90;93.10
8459;DHT22;4266;48.816;9.154;2022-10-28T11:35:43;21.90;93.20
8459;DHT22;4266;48.816;9.154;2022-10-28T11:38:26;22.10;92.60
8459;DHT22;4266;48.816;9.154;2022-10-28T11:40:55;21.90;92.50
8459;DHT22;4266;48.816;9.154;2022-10-28T11:43:23;21.80;92.40
8459;DHT22;4266;48.816;9.154;2022-10-28T11:46:59;21.70;92.70
8459;DHT22;4266;48.816;9.154;2022-10-28T11:56:57;21.00;93.10
8459;DHT22;4266;48.816;9.154;2022-10-28T11:59:32;20.80;93.40
8459;DHT22;4266;48.816;9.154;2022-10-28T12:07:09;21.50;93.30
8459;DHT22;4266;48.816;9.154;2022-10-28T12:09:43;22.00;93.80
8459;DHT22;4266;48.816;9.154;2022-10-28T12:13:13;22.00;93.80
8459;DHT22;4266;48.816;9.154;2022-10-28T12:14:55;22.10;93.10
8459;DHT22;4266;48.816;9.154;2022-10-28T12:17:22;22.40;93.40
8459;DHT22;4266;48.816;9.154;2022-10-28T12:19:52;22.70;93.50
8459;DHT22;4266;48.816;9.154;2022-10-28T12:22:21;23.10;93.70
8459;DHT22;4266;48.816;9.154;2022-10-28T12:24:45;24.30;93.30
8459;DHT22;4266;48.816;9.154;2022-10-28T12:27:15;26.20;91.90
8459;DHT22;4266;48.816;9.154;2022-10-28T12:29:41;27.00;90.10
8459;DHT22;4266;48.816;9.154;2022-10-28T12:32:08;26.20;89.50
8459;DHT22;4266;48.816;9.154;2022-10-28T12:34:33;26.20;89.20
8459;DHT22;4266;48.816;9.154;2022-10-28T12:37:03;26.00;89.90
8459;DHT22;4266;48.816;9.154;2022-10-28T12:39:29;27.10;88.20
8459;DHT22;4266;48.816;9.154;2022-10-28T12:41:55;25.80;88.30
8459;DHT22;4266;48.816;9.154;2022-10-28T12:44:20;25.80;88.20
8459;DHT22;4266;48.816;9.154;2022-10-28T12:46:49;27.20;86.90
8459;DHT22;4266;48.816;9.154;2022-10-28T12:49:19;28.20;85.60
8459;DHT22;4266;48.816;9.154;2022-10-28T12:51:43;28.60;84.20
8459;DHT22;4266;48.816;9.154;2022-10-28T12:54:23;28.30;84.00
8459;DHT22;4266;48.816;9.154;2022-10-28T12:56:51;28.80;84.20
8459;DHT22;4266;48.816;9.154;2022-10-28T12:59:17;28.80;84.70
8459;DHT22;4266;48.816;9.154;2022-10-28T13:01:43;29.00;83.00
8459;DHT22;4266;48.816;9.154;2022-10-28T13:04:10;28.10;82.50
8459;DHT22;4266;48.816;9.154;2022-10-28T13:06:48;27.60;83.20
8459;DHT22;4266;48.816;9.154;2022-10-28T13:09:34;28.50;82.40
8459;DHT22;4266;48.816;9.154;2022-10-28T13:12:02;28.70;82.20
8459;DHT22;4266;48.816;9.154;2022-10-28T13:15:04;28.70;82.10
8459;DHT22;4266;48.816;9.154;2022-10-28T13:20:23;28.30;82.60
8459;DHT22;4266;48.816;9.154;2022-10-28T13:22:58;28.40;81.20
8459;DHT22;4266;48.816;9.154;2022-10-28T13:26:28;28.50;80.60
8459;DHT22;4266;48.816;9.154;2022-10-28T13:28:02;28.10;80.00
8459;DHT22;4266;48.816;9.154;2022-10-28T13:30:28;28.20;82.10
8459;DHT22;4266;48.816;9.154;2022-10-28T13:33:03;27.40;81.30
8459;DHT22;4266;48.816;9.154;2022-10-28T13:35:27;27.00;82.50
8459;DHT22;4266;48.816;9.154;2022-10-28T13:37:53;26.70;82.70
8459;DHT22;4266;48.816;9.154;2022-10-28T13:42:59;27.10;83.60
8459;DHT22;4266;48.816;9.154;2022-10-28T13:45:43;27.10;84.10
8459;DHT22;4266;48.816;9.154;2022-10-28T13:50:46;26.30;84.40
8459;DHT22;4266;48.816;9.154;2022-10-28T13:58:50;24.60;86.50
8459;DHT22;4266;48.816;9.154;2022-10-28T14:04:13;24.50;89.00
8459;DHT22;4266;48.816;9.154;2022-10-28T14:06:31;24.40;88.30
8459;DHT22;4266;48.816;9.154;2022-10-28T14:08:57;24.20;88.10
8459;DHT22;4266;48.816;9.154;2022-10-28T14:11:23;24.10;88.90
8459;DHT22;4266;48.816;9.154;2022-10-28T14:13:49;24.10;88.10
8459;DHT22;4266;48.816;9.154;2022-10-28T14:16:35;24.00;89.10
8459;DHT22;4266;48.816;9.154;2022-10-28T14:19:15;23.90;89.30
8459;DHT22;4266;48.816;9.154;2022-10-28T14:21:44;24.20;89.00
8459;DHT22;4266;48.816;9.154;2022-10-28T14:24:09;23.80;89.40
8459;DHT22;4266;48.816;9.154;2022-10-28T14:27:08;23.70;90.10
8459;DHT22;4266;48.816;9.154;2022-10-28T14:29:21;23.70;90.70
8459;DHT22;4266;48.816;9.154;2022-10-28T14:31:36;23.70;90.70
8459;DHT22;4266;48.816;9.154;2022-10-28T14:39:39;23.30;92.10
8459;DHT22;4266;48.816;9.154;2022-10-28T14:42:31;23.20;93.00
8459;DHT22;4266;48.816;9.154;2022-10-28T14:45:01;23.20;92.80
8459;DHT22;4266;48.816;9.154;2022-10-28T14:47:35;23.20;92.80
8459;DHT22;4266;48.816;9.154;2022-10-28T14:49:59;23.20;92.50
8459;DHT22;4266;48.816;9.154;2022-10-28T14:52:23;23.20;91.70
8459;DHT22;4266;48.816;9.154;2022-10-28T14:54:51;23.00;91.40
8459;DHT22;4266;48.816;9.154;2022-10-28T14:57:16;23.00;91.40
8459;DHT22;4266;48.816;9.154;2022-10-28T14:59:42;23.00;91.60
8459;DHT22;4266;48.816;9.154;2022-10-28T15:02:27;22.90;91.90
8459;DHT22;4266;48.816;9.154;2022-10-28T15:05:17;22.90;92.20
8459;DHT22;4266;48.816;9.154;2022-10-28T15:07:43;22.60;92.50
8459;DHT22;4266;48.816;9.154;2022-10-28T15:12:57;22.50;92.60
8459;DHT22;4266;48.816;9.154;2022-10-28T15:15:23;22.60;92.90
8459;DHT22;4266;48.816;9.154;2022-10-28T15:17:49;22.50;93.00
8459;DHT22;4266;48.816;9.154;2022-10-28T15:20:22;22.50;92.90
8459;DHT22;4266;48.816;9.154;2022-10-28T15:22:48;22.50;92.90
8459;DHT22;4266;48.816;9.154;2022-10-28T15:25:13;22.40;93.10
8459;DHT22;4266;48.816;9.154;2022-10-28T15:27:40;22.30;92.80
8459;DHT22;4266;48.816;9.154;2022-10-28T15:30:12;22.20;92.70
8459;DHT22;4266;48.816;9.154;2022-10-28T15:32:34;22.10;92.80
8459;DHT22;4266;48.816;9.154;2022-10-28T15:35:23;21.90;92.90
8459;DHT22;4266;48.816;9.154;2022-10-28T15:37:27;21.90;93.00
8459;DHT22;4266;48.816;9.154;2022-10-28T15:39:55;21.80;93.10
8459;DHT22;4266;48.816;9.154;2022-10-28T15:42:28;21.80;93.10
8459;DHT22;4266;48.816;9.154;2022-10-28T15:44:53;21.70;93.00
8459;DHT22;4266;48.816;9.154;2022-10-28T15:47:22;21.80;92.80
8459;DHT22;4266;48.816;9.154;2022-10-28T15:49:44;21.70;92.80
8459;DHT22;4266;48.816;9.154;2022-10-28T15:52:33;21.70;93.00
8459;DHT22;4266;48.816;9.154;2022-10-28T15:54:59;21.70;93.00
8459;DHT22;4266;48.816;9.154;2022-10-28T15:57:26;21.70;92.50
8459;DHT22;4266;48.816;9.154;2022-10-28T16:02:38;21.70;92.40
8459;DHT22;4266;48.816;9.154;2022-10-28T16:05:06;21.70;92.50
8459;DHT22;4266;48.816;9.154;2022-10-28T16:07:30;21.60;92.60
8459;DHT22;4266;48.816;9.154;2022-10-28T16:09:56;21.60;92.60
8459;DHT22;4266;48.816;9.154;2022-10-28T16:12:22;21.50;92.80
8459;DHT22;4266;48.816;9.154;2022-10-28T16:14:57;21.10;92.50
8459;DHT22;4266;48.816;9.154;2022-10-28T16:17:24;21.10;92.50
8459;DHT22;4266;48.816;9.154;2022-10-28T16:19:50;21.00;92.70
8459;DHT22;4266;48.816;9.154;2022-10-28T16:22:15;21.20;91.80
8459;DHT22;4266;48.816;9.154;2022-10-28T16:24:42;21.30;91.70
8459;DHT22;4266;48.816;9.154;2022-10-28T16:27:22;21.30;91.70
8459;DHT22;4266;48.816;9.154;2022-10-28T16:29:47;21.20;92.20
8459;DHT22;4266;48.816;9.154;2022-10-28T16:32:13;21.20;92.20
8459;DHT22;4266;48.816;9.154;2022-10-28T16:34:38;21.00;92.60
8459;DHT22;4266;48.816;9.154;2022-10-28T16:37:26;20.50;93.00
8459;DHT22;4266;48.816;9.154;2022-10-28T16:39:51;20.50;93.00
8459;DHT22;4266;48.816;9.154;2022-10-28T16:42:17;20.40;92.90
8459;DHT22;4266;48.816;9.154;2022-10-28T16:44:43;20.40;92.90
8459;DHT22;4266;48.816;9.154;2022-10-28T16:47:13;20.40;92.70
8459;DHT22;4266;48.816;9.154;2022-10-28T16:49:38;20.40;92.70
8459;DHT22;4266;48.816;9.154;2022-10-28T16:52:03;20.30;92.80
8459;DHT22;4266;48.816;9.154;2022-10-28T16:54:29;20.30;92.50
8459;DHT22;4266;48.816;9.154;2022-10-28T16:56:55;20.10;93.20
8459;DHT22;4266;48.816;9.154;2022-10-28T16:59:20;20.10;92.80
8459;DHT22;4266;48.816;9.154;2022-10-28T17:01:46;20.20;92.60
8459;DHT22;4266;48.816;9.154;2022-10-28T17:04:12;20.40;91.90
8459;DHT22;4266;48.816;9.154;2022-10-28T17:06:38;20.40;91.90